Time;durP1;ratioP1;P1;durP2;ratioP2;P2;SDS_P1;SDS_P2;PMS_P1;PMS_P2;Temp;Humidity;BMP_temperature;BMP_pressure;BME280_temperature;BME280_humidity;BME280_pressure;Samples;Min_cycle;Max_cycle;Signal;HPM_P1;HPM_P2
2022/01/11 00:01:44;;;;;;;;;;;2.80;69.90;;;;;;5066682;28;19967;-69
2022/01/11 00:04:19;;;;;;;;;;;2.80;69.70;;;;;;5051084;28;20002;-69
2022/01/11 00:06:49;;;;;;;;;;;2.70;69.40;;;;;;5066733;28;20373;-69
2022/01/11 00:09:42;;;;;;;;;;;2.70;69.10;;;;;;5050332;28;19925;-69
2022/01/11 00:12:12;;;;;;;;;;;2.70;68.90;;;;;;5050026;28;20633;-69
2022/01/11 00:14:41;;;;;;;;;;;2.70;68.60;;;;;;5051492;28;20015;-70
2022/01/11 00:17:07;;;;;;;;;;;2.70;68.50;;;;;;5049863;28;19921;-69
2022/01/11 00:19:33;;;;;;;;;;;2.60;68.50;;;;;;5082139;28;19916;-69
2022/01/11 00:22:17;;;;;;;;;;;2.60;68.50;;;;;;5049872;28;19928;-69
2022/01/11 00:24:43;;;;;;;;;;;2.60;68.30;;;;;;5049047;28;20007;-69
2022/01/11 00:27:13;;;;;;;;;;;2.60;68.30;;;;;;5050780;28;20349;-69
2022/01/11 00:29:46;;;;;;;;;;;2.60;67.90;;;;;;5050201;28;20531;-69
2022/01/11 00:32:27;;;;;;;;;;;2.60;67.20;;;;;;5049876;28;19928;-69
2022/01/11 00:34:55;;;;;;;;;;;2.60;67.50;;;;;;5051014;28;19947;-68
2022/01/11 00:37:21;;;;;;;;;;;2.70;67.20;;;;;;5082727;28;20011;-69
2022/01/11 00:39:50;;;;;;;;;;;2.70;65.90;;;;;;5083045;28;19956;-69
2022/01/11 00:42:22;;;;;;;;;;;2.80;66.10;;;;;;5050770;28;19913;-69
2022/01/11 00:44:52;;;;;;;;;;;2.80;65.80;;;;;;5051320;28;19913;-69
2022/01/11 00:47:20;;;;;;;;;;;2.80;65.70;;;;;;5066210;28;19925;-69
2022/01/11 00:49:46;;;;;;;;;;;2.90;65.40;;;;;;5033095;28;19921;-69
2022/01/11 00:52:16;;;;;;;;;;;2.90;65.40;;;;;;5082440;28;20308;-69
2022/01/11 00:54:51;;;;;;;;;;;2.90;64.70;;;;;;5049271;28;19948;-69
2022/01/11 00:57:28;;;;;;;;;;;3.00;64.70;;;;;;5033115;28;19932;-70
2022/01/11 00:59:59;;;;;;;;;;;3.00;64.30;;;;;;5049671;28;19924;-70
2022/01/11 01:02:26;;;;;;;;;;;3.00;64.20;;;;;;5048704;28;20004;-69
2022/01/11 01:04:56;;;;;;;;;;;3.00;64.20;;;;;;5050253;28;19921;-69
2022/01/11 01:07:23;;;;;;;;;;;3.00;64.00;;;;;;5065662;28;19935;-69
2022/01/11 01:10:01;;;;;;;;;;;3.00;64.00;;;;;;5065777;28;19920;-69
2022/01/11 01:12:27;;;;;;;;;;;3.00;64.10;;;;;;5063990;28;19916;-69
2022/01/11 01:15:08;;;;;;;;;;;3.00;63.50;;;;;;5049207;28;19913;-69
2022/01/11 01:17:34;;;;;;;;;;;3.00;63.90;;;;;;5049084;28;19927;-69
2022/01/11 01:20:04;;;;;;;;;;;3.00;64.00;;;;;;5033214;28;19917;-69
2022/01/11 01:22:33;;;;;;;;;;;3.00;63.80;;;;;;5069516;28;20015;-68
2022/01/11 01:25:04;;;;;;;;;;;3.00;63.60;;;;;;5034346;28;19935;-69
2022/01/11 01:27:30;;;;;;;;;;;3.10;63.70;;;;;;5049516;28;20316;-70
2022/01/11 01:29:56;;;;;;;;;;;3.10;63.50;;;;;;5064407;28;20011;-69
2022/01/11 01:32:26;;;;;;;;;;;3.10;62.80;;;;;;5049774;28;20373;-69
2022/01/11 01:35:04;;;;;;;;;;;3.10;63.20;;;;;;5064921;28;19923;-69
2022/01/11 01:37:30;;;;;;;;;;;3.10;62.50;;;;;;5048744;28;20395;-69
2022/01/11 01:39:56;;;;;;;;;;;3.10;61.90;;;;;;5048528;28;19983;-69
2022/01/11 01:42:34;;;;;;;;;;;3.10;61.90;;;;;;5065121;28;20486;-69
2022/01/11 01:45:04;;;;;;;;;;;3.10;62.00;;;;;;5065273;28;19913;-70
2022/01/11 01:47:30;;;;;;;;;;;3.10;62.20;;;;;;5048436;28;19924;-69
2022/01/11 01:50:28;;;;;;;;;;;3.20;61.90;;;;;;5045138;28;19924;-69
2022/01/11 01:52:59;;;;;;;;;;;3.10;61.70;;;;;;5028427;28;19931;-69
2022/01/11 01:55:25;;;;;;;;;;;3.20;61.90;;;;;;5038654;28;19931;-70
2022/01/11 01:57:55;;;;;;;;;;;3.10;62.00;;;;;;5063739;28;20292;-69
2022/01/11 02:00:32;;;;;;;;;;;;;;;;;;;;;
2022/01/11 02:03:17;;;;;;;;;;;3.10;62.10;;;;;;5063193;28;19917;-69
2022/01/11 02:06:05;;;;;;;;;;;3.20;62.10;;;;;;5033967;28;20007;-69
2022/01/11 02:08:42;;;;;;;;;;;3.20;61.90;;;;;;5029612;28;20389;-70
2022/01/11 02:11:08;;;;;;;;;;;3.10;61.90;;;;;;5045395;28;19921;-69
2022/01/11 02:13:47;;;;;;;;;;;3.10;61.70;;;;;;5048203;28;19917;-69
2022/01/11 02:16:22;;;;;;;;;;;3.10;61.80;;;;;;5042177;28;19920;-69
2022/01/11 02:18:52;;;;;;;;;;;3.10;61.30;;;;;;5010974;28;19921;-69
2022/01/11 02:21:19;;;;;;;;;;;3.20;61.60;;;;;;5003171;28;19944;-69
2022/01/11 02:23:49;;;;;;;;;;;3.10;61.70;;;;;;5002427;28;19917;-70
2022/01/11 02:26:15;;;;;;;;;;;3.10;61.70;;;;;;5011005;28;19979;-70
2022/01/11 02:28:41;;;;;;;;;;;3.10;62.10;;;;;;5027083;28;19952;-69
2022/01/11 02:31:12;;;;;;;;;;;3.20;61.40;;;;;;5026882;28;19921;-69
2022/01/11 02:33:46;;;;;;;;;;;3.20;61.50;;;;;;5011132;28;20417;-69
2022/01/11 02:36:32;;;;;;;;;;;3.20;61.60;;;;;;5017656;28;20416;-70
2022/01/11 02:38:58;;;;;;;;;;;3.10;61.50;;;;;;5014573;28;19971;-69
2022/01/11 02:41:28;;;;;;;;;;;3.20;61.40;;;;;;5014153;28;19921;-68
2022/01/11 02:44:18;;;;;;;;;;;3.10;61.40;;;;;;5030569;28;19928;-69
2022/01/11 02:46:44;;;;;;;;;;;3.10;61.40;;;;;;5020114;28;19921;-69
2022/01/11 02:49:10;;;;;;;;;;;3.10;60.80;;;;;;5085058;28;19925;-69
2022/01/11 02:51:37;;;;;;;;;;;3.10;61.40;;;;;;5051418;28;19948;-69
2022/01/11 02:54:33;;;;;;;;;;;3.10;61.50;;;;;;5052550;28;20353;-68
2022/01/11 02:56:59;;;;;;;;;;;3.10;60.80;;;;;;5053027;28;19925;-69
2022/01/11 02:59:30;;;;;;;;;;;3.10;61.60;;;;;;5052502;28;20284;-68
2022/01/11 03:02:03;;;;;;;;;;;3.20;61.70;;;;;;5083543;28;20175;-69
2022/01/11 03:05:06;;;;;;;;;;;3.20;61.50;;;;;;5083471;28;19921;-69
2022/01/11 03:07:33;;;;;;;;;;;3.10;61.50;;;;;;5052557;28;19921;-69
2022/01/11 03:10:34;;;;;;;;;;;3.10;61.70;;;;;;5065295;28;19927;-69
2022/01/11 03:13:02;;;;;;;;;;;3.10;61.80;;;;;;5051345;28;19921;-69
2022/01/11 03:15:29;;;;;;;;;;;3.20;61.60;;;;;;5051229;28;19929;-69
2022/01/11 03:17:55;;;;;;;;;;;3.20;61.80;;;;;;5052824;28;19917;-69
2022/01/11 03:20:27;;;;;;;;;;;3.20;61.90;;;;;;5071547;28;19943;-70
2022/01/11 03:23:24;;;;;;;;;;;3.20;62.00;;;;;;5048517;28;20010;-69
2022/01/11 03:25:54;;;;;;;;;;;3.20;62.00;;;;;;5041046;28;19921;-69
2022/01/11 03:28:21;;;;;;;;;;;3.20;61.90;;;;;;5050689;28;19951;-69
2022/01/11 03:31:07;;;;;;;;;;;3.20;62.00;;;;;;5051036;28;19927;-70
2022/01/11 03:33:33;;;;;;;;;;;3.20;62.20;;;;;;5052164;28;20066;-69
2022/01/11 03:36:00;;;;;;;;;;;3.10;62.30;;;;;;5083246;28;19966;-70
2022/01/11 03:38:26;;;;;;;;;;;3.10;62.20;;;;;;5050706;28;20015;-69
2022/01/11 03:40:52;;;;;;;;;;;3.10;62.50;;;;;;5052271;28;19927;-68
2022/01/11 03:43:21;;;;;;;;;;;3.00;62.60;;;;;;5050326;28;20019;-69
2022/01/11 03:45:53;;;;;;;;;;;3.00;62.10;;;;;;5034634;28;20416;-70
2022/01/11 03:48:20;;;;;;;;;;;2.90;62.90;;;;;;5082074;28;19924;-69
2022/01/11 03:51:06;;;;;;;;;;;2.80;63.00;;;;;;5051387;28;19925;-69
2022/01/11 03:53:44;;;;;;;;;;;2.80;63.20;;;;;;5047326;28;19921;-69
2022/01/11 03:56:21;;;;;;;;;;;2.70;63.40;;;;;;5077318;28;19921;-69
2022/01/11 03:58:52;;;;;;;;;;;2.60;63.40;;;;;;5051655;28;20312;-69
2022/01/11 04:01:18;;;;;;;;;;;2.50;63.60;;;;;;5067170;28;19982;-69
2022/01/11 04:03:46;;;;;;;;;;;2.40;63.80;;;;;;5050263;28;19921;-69
2022/01/11 04:06:16;;;;;;;;;;;2.30;63.70;;;;;;5063494;28;20102;-69
2022/01/11 04:09:04;;;;;;;;;;;2.30;63.20;;;;;;5045429;28;19998;-68
2022/01/11 04:11:31;;;;;;;;;;;2.20;63.50;;;;;;5083281;28;19983;-69
2022/01/11 04:13:57;;;;;;;;;;;2.10;63.40;;;;;;5081963;28;19928;-70
2022/01/11 04:16:26;;;;;;;;;;;2.20;63.70;;;;;;5033539;28;19920;-69
2022/01/11 04:18:52;;;;;;;;;;;2.20;63.50;;;;;;5051251;28;20330;-69
2022/01/11 04:21:18;;;;;;;;;;;2.20;63.40;;;;;;5050963;28;19924;-68
2022/01/11 04:27:00;;;;;;;;;;;2.20;63.20;;;;;;5063391;28;19928;-69
2022/01/11 04:29:27;;;;;;;;;;;2.20;62.80;;;;;;5049399;28;19959;-69
2022/01/11 04:31:53;;;;;;;;;;;2.20;63.30;;;;;;5049716;28;19924;-69
2022/01/11 04:34:27;;;;;;;;;;;2.20;63.50;;;;;;5049823;28;19935;-68
2022/01/11 04:37:00;;;;;;;;;;;2.10;63.10;;;;;;5050944;28;20336;-69
2022/01/11 04:39:29;;;;;;;;;;;2.10;64.60;;;;;;5032887;28;19916;-69
2022/01/11 04:41:55;;;;;;;;;;;2.00;63.60;;;;;;5066481;28;19912;-68
2022/01/11 04:44:23;;;;;;;;;;;2.00;63.90;;;;;;5062437;28;19932;-69
2022/01/11 04:46:51;;;;;;;;;;;1.90;64.00;;;;;;5031582;28;20336;-69
2022/01/11 04:49:20;;;;;;;;;;;1.90;64.10;;;;;;5022746;28;19921;-69
2022/01/11 04:51:49;;;;;;;;;;;1.80;64.30;;;;;;5049229;28;20343;-68
2022/01/11 04:54:35;;;;;;;;;;;1.70;64.30;;;;;;5050546;28;19921;-68
2022/01/11 04:57:24;;;;;;;;;;;1.60;64.40;;;;;;5049532;28;19958;-69
2022/01/11 04:59:50;;;;;;;;;;;1.50;64.50;;;;;;5081209;28;19913;-69
2022/01/11 05:02:19;;;;;;;;;;;1.50;64.60;;;;;;5082497;28;19954;-69
2022/01/11 05:04:48;;;;;;;;;;;1.50;64.60;;;;;;5068445;28;19971;-69
2022/01/11 05:07:15;;;;;;;;;;;1.40;64.00;;;;;;5048826;28;19924;-68
2022/01/11 05:09:41;;;;;;;;;;;1.30;64.70;;;;;;5048832;28;19926;-68
2022/01/11 05:12:13;;;;;;;;;;;1.20;64.70;;;;;;5049179;28;19913;-68
2022/01/11 05:14:56;;;;;;;;;;;1.20;64.70;;;;;;5050702;28;19920;-69
2022/01/11 05:17:22;;;;;;;;;;;1.20;64.90;;;;;;5067635;28;19928;-69
2022/01/11 05:19:49;;;;;;;;;;;1.10;64.30;;;;;;5049138;28;19982;-69
2022/01/11 05:22:38;;;;;;;;;;;1.10;64.90;;;;;;5048121;28;19920;-68
2022/01/11 05:25:15;;;;;;;;;;;1.10;64.70;;;;;;5051459;28;19921;-69
2022/01/11 05:27:42;;;;;;;;;;;1.10;64.80;;;;;;5033951;28;19920;-69
2022/01/11 05:30:27;;;;;;;;;;;1.00;64.70;;;;;;5065334;28;19991;-70
2022/01/11 05:32:55;;;;;;;;;;;1.10;64.90;;;;;;5050652;28;20047;-69
2022/01/11 05:35:24;;;;;;;;;;;1.00;64.90;;;;;;5081575;28;19928;-69
2022/01/11 05:37:54;;;;;;;;;;;1.00;64.80;;;;;;5032009;28;19967;-69
2022/01/11 05:40:21;;;;;;;;;;;1.00;64.80;;;;;;5048121;28;20294;-69
2022/01/11 05:42:51;;;;;;;;;;;1.00;64.80;;;;;;5046241;28;19921;-69
2022/01/11 05:45:17;;;;;;;;;;;1.00;64.70;;;;;;5048041;28;19917;-69
2022/01/11 05:47:52;;;;;;;;;;;1.00;64.70;;;;;;5065208;28;19939;-69
2022/01/11 05:50:38;;;;;;;;;;;1.00;64.60;;;;;;5049510;28;19927;-68
2022/01/11 05:53:04;;;;;;;;;;;1.00;64.60;;;;;;5048503;28;19975;-69
2022/01/11 05:55:31;;;;;;;;;;;1.00;64.50;;;;;;5049500;28;19960;-69
2022/01/11 05:57:57;;;;;;;;;;;1.10;64.70;;;;;;5046957;28;19921;-69
2022/01/11 06:00:26;;;;;;;;;;;1.10;64.70;;;;;;5049776;28;19923;-69
2022/01/11 06:02:58;;;;;;;;;;;1.10;64.50;;;;;;5049057;28;19924;-68
2022/01/11 06:05:24;;;;;;;;;;;1.10;64.70;;;;;;5061340;28;19921;-68
2022/01/11 06:07:51;;;;;;;;;;;1.10;64.70;;;;;;5034218;28;19929;-69
2022/01/11 06:10:20;;;;;;;;;;;1.00;64.60;;;;;;5039826;28;19921;-69
2022/01/11 06:12:48;;;;;;;;;;;1.00;64.40;;;;;;5035449;28;19942;-69
2022/01/11 06:15:14;;;;;;;;;;;1.10;64.90;;;;;;5053504;28;19923;-69
2022/01/11 06:17:42;;;;;;;;;;;1.00;65.00;;;;;;5052516;28;20300;-68
2022/01/11 06:20:12;;;;;;;;;;;0.90;65.00;;;;;;5057094;28;19920;-69
2022/01/11 06:22:42;;;;;;;;;;;0.90;65.10;;;;;;5052312;28;19921;-69
2022/01/11 06:25:31;;;;;;;;;;;0.90;65.20;;;;;;5045397;28;20028;-69
2022/01/11 06:28:07;;;;;;;;;;;0.90;65.20;;;;;;5044911;28;20409;-68
2022/01/11 06:30:47;;;;;;;;;;;0.90;65.40;;;;;;5052243;28;19926;-68
2022/01/11 06:33:16;;;;;;;;;;;0.80;65.20;;;;;;5035911;28;20008;-69
2022/01/11 06:35:42;;;;;;;;;;;0.80;65.30;;;;;;5051492;28;19931;-68
2022/01/11 06:38:26;;;;;;;;;;;0.80;65.50;;;;;;5052996;28;19928;-68
2022/01/11 06:40:52;;;;;;;;;;;0.70;65.30;;;;;;5053106;28;20027;-68
2022/01/11 06:43:18;;;;;;;;;;;0.80;65.40;;;;;;5034857;28;20305;-68
2022/01/11 06:46:05;;;;;;;;;;;0.80;64.60;;;;;;5053152;28;20035;-68
2022/01/11 06:49:09;;;;;;;;;;;0.90;65.10;;;;;;5065252;28;20121;-69
2022/01/11 06:51:38;;;;;;;;;;;1.00;64.70;;;;;;5052772;28;19920;-69
2022/01/11 06:54:15;;;;;;;;;;;1.10;64.60;;;;;;5068632;28;19913;-69
2022/01/11 06:56:41;;;;;;;;;;;1.20;64.10;;;;;;5052956;28;19928;-69
2022/01/11 06:59:10;;;;;;;;;;;1.30;64.20;;;;;;5053019;28;19917;-69
2022/01/11 07:01:36;;;;;;;;;;;1.30;64.20;;;;;;5051530;28;19924;-69
2022/01/11 07:04:22;;;;;;;;;;;1.40;64.10;;;;;;5052729;28;20265;-68
2022/01/11 07:06:52;;;;;;;;;;;1.50;64.10;;;;;;5051244;28;19928;-69
2022/01/11 07:09:38;;;;;;;;;;;1.60;63.90;;;;;;5052347;28;20396;-68
2022/01/11 07:12:05;;;;;;;;;;;1.60;63.30;;;;;;5052249;28;19916;-68
2022/01/11 07:14:34;;;;;;;;;;;1.70;63.60;;;;;;5048267;28;19921;-68
2022/01/11 07:17:00;;;;;;;;;;;1.70;63.70;;;;;;5067070;28;20352;-69
2022/01/11 07:19:42;;;;;;;;;;;1.80;63.50;;;;;;5067712;28;19927;-69
2022/01/11 07:22:11;;;;;;;;;;;1.80;63.20;;;;;;5050684;28;19995;-68
2022/01/11 07:24:46;;;;;;;;;;;1.90;63.20;;;;;;5050539;28;19966;-69
2022/01/11 07:27:14;;;;;;;;;;;1.90;63.10;;;;;;5050767;28;19920;-69
2022/01/11 07:30:20;;;;;;;;;;;2.00;64.00;;;;;;5079206;28;19944;-68
2022/01/11 07:32:55;;;;;;;;;;;2.00;62.80;;;;;;5052090;28;20596;-68
2022/01/11 07:35:39;;;;;;;;;;;2.10;62.80;;;;;;5049611;28;19966;-69
2022/01/11 07:38:05;;;;;;;;;;;2.20;62.60;;;;;;5051849;28;19920;-69
2022/01/11 07:40:31;;;;;;;;;;;2.20;62.40;;;;;;5082648;28;19958;-69
2022/01/11 07:43:02;;;;;;;;;;;2.30;62.30;;;;;;5051814;28;20389;-68
2022/01/11 07:45:28;;;;;;;;;;;2.30;62.20;;;;;;5051941;28;19929;-68
2022/01/11 07:47:59;;;;;;;;;;;2.30;62.00;;;;;;5052305;28;19913;-69
2022/01/11 07:50:25;;;;;;;;;;;2.40;61.70;;;;;;5052252;28;20293;-69
2022/01/11 07:52:53;;;;;;;;;;;2.40;61.10;;;;;;5050312;28;19924;-69
2022/01/11 07:55:22;;;;;;;;;;;2.40;61.40;;;;;;5051530;28;19920;-69
2022/01/11 07:58:09;;;;;;;;;;;2.30;61.50;;;;;;5050591;28;19929;-69
2022/01/11 08:00:50;;;;;;;;;;;2.30;61.50;;;;;;5051591;28;19921;-69
2022/01/11 08:03:17;;;;;;;;;;;2.30;61.40;;;;;;5033940;28;19916;-68
2022/01/11 08:05:43;;;;;;;;;;;2.20;61.40;;;;;;5050814;28;19924;-67
2022/01/11 08:08:09;;;;;;;;;;;2.10;61.10;;;;;;5050426;28;19921;-68
2022/01/11 08:10:36;;;;;;;;;;;2.00;61.80;;;;;;5033485;28;19960;-69
2022/01/11 08:13:06;;;;;;;;;;;1.90;61.90;;;;;;5049814;28;19921;-69
2022/01/11 08:15:35;;;;;;;;;;;1.90;61.90;;;;;;5066408;28;20372;-69
2022/01/11 08:18:01;;;;;;;;;;;1.90;62.00;;;;;;5032863;28;20448;-69
2022/01/11 08:20:31;;;;;;;;;;;1.80;61.60;;;;;;5032332;28;19975;-68
2022/01/11 08:23:10;;;;;;;;;;;1.80;62.20;;;;;;5083076;28;19946;-69
2022/01/11 08:26:07;;;;;;;;;;;1.70;62.00;;;;;;5051067;28;19928;-69
2022/01/11 08:28:34;;;;;;;;;;;1.70;62.20;;;;;;5066094;28;20031;-69
2022/01/11 08:31:30;;;;;;;;;;;1.60;61.60;;;;;;5039780;28;19924;-69
2022/01/11 08:33:59;;;;;;;;;;;1.60;62.20;;;;;;5037563;28;19921;-69
2022/01/11 08:36:28;;;;;;;;;;;1.60;62.10;;;;;;5051030;28;19927;-69
2022/01/11 08:38:56;;;;;;;;;;;1.60;62.20;;;;;;5083836;28;20358;-69
2022/01/11 08:41:24;;;;;;;;;;;1.60;62.20;;;;;;5049750;28;20284;-70
2022/01/11 08:43:55;;;;;;;;;;;1.70;62.20;;;;;;5050716;28;19927;-69
2022/01/11 08:46:21;;;;;;;;;;;1.70;62.00;;;;;;5049533;28;19950;-69
2022/01/11 08:48:48;;;;;;;;;;;1.90;61.80;;;;;;5050470;28;19921;-68
2022/01/11 08:51:14;;;;;;;;;;;2.10;61.40;;;;;;5050492;28;19920;-69
2022/01/11 08:53:41;;;;;;;;;;;2.20;61.20;;;;;;5051207;28;19962;-69
2022/01/11 08:56:07;;;;;;;;;;;2.40;60.70;;;;;;5046039;28;19983;-70
2022/01/11 08:58:37;;;;;;;;;;;2.50;60.50;;;;;;5079284;28;20011;-69
2022/01/11 09:01:03;;;;;;;;;;;2.60;59.40;;;;;;5050285;28;20441;-69
2022/01/11 09:03:29;;;;;;;;;;;2.70;59.50;;;;;;5049095;28;19920;-69
2022/01/11 09:05:55;;;;;;;;;;;2.90;59.90;;;;;;5050822;28;19920;-69
2022/01/11 09:08:27;;;;;;;;;;;3.80;58.90;;;;;;5050387;28;20288;-69
2022/01/11 09:11:06;;;;;;;;;;;4.50;57.50;;;;;;5049963;28;19928;-69
2022/01/11 09:13:34;;;;;;;;;;;4.90;57.20;;;;;;5047658;28;19928;-69
2022/01/11 09:16:01;;;;;;;;;;;5.90;55.90;;;;;;5050317;28;19929;-68
2022/01/11 09:18:28;;;;;;;;;;;7.20;52.70;;;;;;5048879;28;22666;-69
2022/01/11 09:20:54;;;;;;;;;;;8.10;50.90;;;;;;5030097;28;19928;-69
2022/01/11 09:23:38;;;;;;;;;;;8.60;50.30;;;;;;5049881;28;20380;-69
2022/01/11 09:26:05;;;;;;;;;;;9.10;48.80;;;;;;5043433;28;20358;-69
2022/01/11 09:28:39;;;;;;;;;;;8.30;50.10;;;;;;5023837;28;19932;-70
2022/01/11 09:31:06;;;;;;;;;;;8.50;50.50;;;;;;5057758;28;19928;-69
2022/01/11 09:33:36;;;;;;;;;;;8.30;50.10;;;;;;5066962;28;19929;-69
2022/01/11 09:36:02;;;;;;;;;;;7.90;50.60;;;;;;5017623;28;20109;-69
2022/01/11 09:38:31;;;;;;;;;;;7.50;51.30;;;;;;5047935;28;19920;-69
2022/01/11 09:40:59;;;;;;;;;;;7.40;52.50;;;;;;5048389;28;19921;-70
2022/01/11 09:43:39;;;;;;;;;;;7.40;52.30;;;;;;5049918;28;19924;-69
2022/01/11 09:46:10;;;;;;;;;;;7.20;51.10;;;;;;5064875;28;19921;-69
2022/01/11 09:48:37;;;;;;;;;;;7.30;51.20;;;;;;5050259;28;19928;-69
2022/01/11 09:51:03;;;;;;;;;;;7.50;49.00;;;;;;5048922;28;20011;-70
2022/01/11 09:53:32;;;;;;;;;;;7.70;49.00;;;;;;5048663;28;20293;-69
2022/01/11 09:56:03;;;;;;;;;;;7.80;49.40;;;;;;5043523;28;19927;-69
2022/01/11 09:58:29;;;;;;;;;;;8.20;48.80;;;;;;5048390;28;20377;-70
2022/01/11 10:01:01;;;;;;;;;;;8.80;47.80;;;;;;5064595;28;19956;-70
2022/01/11 10:03:27;;;;;;;;;;;8.60;48.00;;;;;;5081284;28;19932;-69
2022/01/11 10:06:17;;;;;;;;;;;8.60;48.70;;;;;;5048869;28;20349;-70
2022/01/11 10:08:42;;;;;;;;;;;9.30;47.00;;;;;;5029868;28;19920;-70
2022/01/11 10:11:49;;;;;;;;;;;9.50;46.30;;;;;;5034810;28;19928;-69
2022/01/11 10:14:34;;;;;;;;;;;8.90;46.70;;;;;;5066973;28;19977;-69
2022/01/11 10:17:38;;;;;;;;;;;8.70;48.40;;;;;;5047370;28;19924;-69
2022/01/11 10:20:26;;;;;;;;;;;9.80;47.10;;;;;;5036284;28;19927;-70
2022/01/11 10:22:55;;;;;;;;;;;10.40;45.40;;;;;;5051072;28;19920;-69
2022/01/11 10:25:58;;;;;;;;;;;10.40;45.00;;;;;;5038323;28;19924;-69
2022/01/11 10:28:43;;;;;;;;;;;9.70;45.90;;;;;;5029623;28;19920;-69
2022/01/11 10:31:14;;;;;;;;;;;9.30;46.50;;;;;;5020195;28;19974;-69
2022/01/11 10:34:00;;;;;;;;;;;9.10;46.90;;;;;;5045046;28;19975;-69
2022/01/11 10:36:45;;;;;;;;;;;9.50;45.60;;;;;;5013735;28;20294;-69
2022/01/11 10:39:48;;;;;;;;;;;9.90;44.20;;;;;;5032320;28;19951;-70
2022/01/11 10:42:33;;;;;;;;;;;10.30;43.60;;;;;;5048274;28;19970;-70
2022/01/11 10:45:38;;;;;;;;;;;10.40;43.70;;;;;;5029961;28;19924;-69
2022/01/11 10:48:15;;;;;;;;;;;10.10;43.90;;;;;;5049034;28;19984;-69
2022/01/11 10:50:43;;;;;;;;;;;10.80;43.40;;;;;;5048526;28;20324;-69
2022/01/11 10:53:21;;;;;;;;;;;11.20;42.20;;;;;;5047972;28;20446;-69
2022/01/11 10:55:51;;;;;;;;;;;11.30;42.00;;;;;;5047290;28;20389;-69
2022/01/11 10:58:17;;;;;;;;;;;11.30;42.20;;;;;;5066351;28;20197;-69
2022/01/11 11:01:04;;;;;;;;;;;11.00;42.80;;;;;;5083851;28;19921;-70
2022/01/11 11:03:32;;;;;;;;;;;11.00;43.20;;;;;;5035259;28;19924;-69
2022/01/11 11:06:11;;;;;;;;;;;11.90;41.60;;;;;;5034517;28;20366;-70
2022/01/11 11:08:44;;;;;;;;;;;13.00;39.00;;;;;;5031512;28;20282;-70
2022/01/11 11:11:12;;;;;;;;;;;12.90;38.40;;;;;;5031507;28;19925;-69
2022/01/11 11:13:42;;;;;;;;;;;12.50;39.00;;;;;;5045132;28;19931;-70
2022/01/11 11:16:29;;;;;;;;;;;13.80;37.80;;;;;;5059545;28;19964;-69
2022/01/11 11:19:01;;;;;;;;;;;13.80;37.20;;;;;;5048908;28;19943;-69
2022/01/11 11:21:38;;;;;;;;;;;13.90;36.40;;;;;;5032322;28;19985;-69
2022/01/11 11:24:08;;;;;;;;;;;13.80;36.00;;;;;;5032730;28;19916;-70
2022/01/11 11:27:03;;;;;;;;;;;12.80;35.70;;;;;;5038707;28;20429;-69
2022/01/11 11:29:50;;;;;;;;;;;12.70;36.30;;;;;;5047281;28;20390;-70
2022/01/11 11:35:03;;;;;;;;;;;13.40;37.00;;;;;;5033973;28;20575;-69
2022/01/11 11:37:33;;;;;;;;;;;14.60;34.60;;;;;;5034037;28;19963;-70
2022/01/11 11:40:24;;;;;;;;;;;14.00;34.90;;;;;;5051872;28;20259;-70
2022/01/11 11:43:13;;;;;;;;;;;13.70;34.70;;;;;;5050686;28;19920;-69
2022/01/11 11:45:45;;;;;;;;;;;13.20;34.40;;;;;;5050771;28;20004;-70
2022/01/11 11:48:12;;;;;;;;;;;12.50;35.30;;;;;;5052014;28;19966;-70
2022/01/11 11:51:18;;;;;;;;;;;11.60;35.40;;;;;;5051161;28;19917;-70
2022/01/11 11:53:49;;;;;;;;;;;11.20;36.00;;;;;;5051888;28;19945;-69
2022/01/11 11:56:40;;;;;;;;;;;11.00;36.10;;;;;;5050178;28;19947;-69
2022/01/11 11:59:09;;;;;;;;;;;10.70;35.70;;;;;;5051575;28;19924;-69
2022/01/11 12:01:58;;;;;;;;;;;10.50;35.90;;;;;;5050184;28;19928;-69
2022/01/11 12:05:03;;;;;;;;;;;10.40;36.80;;;;;;5067590;28;19964;-69
2022/01/11 12:07:33;;;;;;;;;;;10.90;35.30;;;;;;5040873;28;19917;-69
2022/01/11 12:09:59;;;;;;;;;;;10.40;34.70;;;;;;5049815;28;20304;-70
2022/01/11 12:12:49;;;;;;;;;;;10.00;34.80;;;;;;5050217;28;19919;-70
2022/01/11 12:15:35;;;;;;;;;;;9.60;35.60;;;;;;5066140;28;19958;-70
2022/01/11 12:18:20;;;;;;;;;;;9.30;36.30;;;;;;5067039;28;19912;-69
2022/01/11 12:20:56;;;;;;;;;;;9.00;36.30;;;;;;5082303;28;20352;-69
2022/01/11 12:23:41;;;;;;;;;;;9.00;36.60;;;;;;5048679;28;19920;-70
2022/01/11 12:26:27;;;;;;;;;;;9.00;36.70;;;;;;5046098;28;20035;-69
2022/01/11 12:29:12;;;;;;;;;;;9.30;36.60;;;;;;5066722;28;19925;-69
2022/01/11 12:32:26;;;;;;;;;;;9.60;36.20;;;;;;5051193;28;19920;-69
2022/01/11 12:35:13;;;;;;;;;;;9.80;36.20;;;;;;5051135;28;19960;-69
2022/01/11 12:37:45;;;;;;;;;;;10.20;35.80;;;;;;5049628;28;19927;-70
2022/01/11 12:40:19;;;;;;;;;;;10.30;35.30;;;;;;5051040;28;20049;-69
2022/01/11 12:43:30;;;;;;;;;;;10.30;35.60;;;;;;5049311;28;20173;-69
2022/01/11 12:46:38;;;;;;;;;;;10.10;35.50;;;;;;5036628;28;20365;-70
2022/01/11 12:49:04;;;;;;;;;;;9.80;35.90;;;;;;5062855;28;19921;-70
2022/01/11 12:51:33;;;;;;;;;;;9.90;35.80;;;;;;5049356;28;19920;-69
2022/01/11 12:54:36;;;;;;;;;;;10.10;35.80;;;;;;5066176;28;20377;-70
2022/01/11 12:57:30;;;;;;;;;;;10.00;36.00;;;;;;5065961;28;19921;-69
2022/01/11 13:00:06;;;;;;;;;;;10.00;35.90;;;;;;5080335;28;20427;-70
2022/01/11 13:02:39;;;;;;;;;;;10.10;35.80;;;;;;5050277;28;19968;-69
2022/01/11 13:05:24;;;;;;;;;;;10.90;35.00;;;;;;5049668;28;19928;-69
2022/01/11 13:07:54;;;;;;;;;;;11.50;33.80;;;;;;5050781;28;19921;-70
2022/01/11 13:10:26;;;;;;;;;;;11.40;33.80;;;;;;5050151;28;20297;-69
2022/01/11 13:13:10;;;;;;;;;;;11.00;34.40;;;;;;5049202;28;19928;-69
2022/01/11 13:15:45;;;;;;;;;;;10.90;34.60;;;;;;5032795;28;20011;-69
2022/01/11 13:18:18;;;;;;;;;;;11.50;34.30;;;;;;5050255;28;19919;-69
2022/01/11 13:20:46;;;;;;;;;;;12.00;33.30;;;;;;5048542;28;20431;-69
2022/01/11 13:24:00;;;;;;;;;;;12.10;33.40;;;;;;5056995;28;20015;-69
2022/01/11 13:26:30;;;;;;;;;;;11.80;33.10;;;;;;5049919;28;20266;-69
2022/01/11 13:29:00;;;;;;;;;;;11.50;33.90;;;;;;5048842;28;20004;-69
2022/01/11 13:31:51;;;;;;;;;;;11.30;33.90;;;;;;5050147;28;19920;-69
2022/01/11 13:34:21;;;;;;;;;;;11.10;34.20;;;;;;5047397;28;19931;-69
2022/01/11 13:36:54;;;;;;;;;;;11.00;34.20;;;;;;5050199;28;20224;-69
2022/01/11 13:39:41;;;;;;;;;;;10.70;34.80;;;;;;5048955;28;19920;-69
2022/01/11 13:42:13;;;;;;;;;;;10.60;34.80;;;;;;5066072;28;20300;-69
2022/01/11 13:44:47;;;;;;;;;;;10.60;35.20;;;;;;5045407;28;19921;-69
2022/01/11 13:47:33;;;;;;;;;;;11.20;34.40;;;;;;5053749;28;19944;-69
2022/01/11 13:50:17;;;;;;;;;;;11.90;32.90;;;;;;5048486;28;19927;-69
2022/01/11 13:52:43;;;;;;;;;;;11.50;32.50;;;;;;5049773;28;19921;-69
2022/01/11 13:55:13;;;;;;;;;;;10.60;32.50;;;;;;5048620;28;19927;-69
2022/01/11 13:57:57;;;;;;;;;;;10.00;33.60;;;;;;5049786;28;19921;-69
2022/01/11 14:00:23;;;;;;;;;;;9.40;34.20;;;;;;5048732;28;19916;-69
2022/01/11 14:03:05;;;;;;;;;;;9.20;34.50;;;;;;5064846;28;19916;-69
2022/01/11 14:05:42;;;;;;;;;;;9.20;34.40;;;;;;5049698;28;19978;-69
2022/01/11 14:08:10;;;;;;;;;;;9.20;34.50;;;;;;5048480;28;19921;-69
2022/01/11 14:10:42;;;;;;;;;;;9.20;34.50;;;;;;5031852;28;19975;-69
2022/01/11 14:13:16;;;;;;;;;;;9.00;34.40;;;;;;5050145;28;19923;-69
2022/01/11 14:15:45;;;;;;;;;;;9.20;34.20;;;;;;5033174;28;19974;-69
2022/01/11 14:18:29;;;;;;;;;;;9.30;34.00;;;;;;5048400;28;19923;-69
2022/01/11 14:21:17;;;;;;;;;;;9.30;34.30;;;;;;5049568;28;19924;-69
2022/01/11 14:23:53;;;;;;;;;;;8.70;34.50;;;;;;5050061;28;19916;-69
2022/01/11 14:26:54;;;;;;;;;;;8.30;35.40;;;;;;5026571;28;19921;-70
2022/01/11 14:29:26;;;;;;;;;;;8.00;35.90;;;;;;5024902;28;19927;-69
2022/01/11 14:32:13;;;;;;;;;;;7.70;36.10;;;;;;5029782;28;19921;-69
2022/01/11 14:34:39;;;;;;;;;;;7.50;36.60;;;;;;5021065;28;20290;-69
2022/01/11 14:37:19;;;;;;;;;;;7.30;37.10;;;;;;5012131;28;19921;-69
2022/01/11 14:39:52;;;;;;;;;;;7.00;37.40;;;;;;5011750;28;19968;-69
2022/01/11 14:42:36;;;;;;;;;;;6.80;37.70;;;;;;4997075;28;19918;-69
2022/01/11 14:45:23;;;;;;;;;;;6.70;38.20;;;;;;5028618;28;19917;-69
2022/01/11 14:47:55;;;;;;;;;;;6.70;38.20;;;;;;5012134;28;20241;-69
2022/01/11 14:50:41;;;;;;;;;;;6.60;38.30;;;;;;5011701;28;19925;-68
2022/01/11 14:53:45;;;;;;;;;;;6.50;38.20;;;;;;5037333;28;19928;-69
2022/01/11 14:56:31;;;;;;;;;;;6.40;38.20;;;;;;5033032;28;19920;-69
2022/01/11 14:59:07;;;;;;;;;;;6.30;38.20;;;;;;5033001;28;20036;-69
2022/01/11 15:02:05;;;;;;;;;;;6.10;38.50;;;;;;5031622;28;19935;-69
2022/01/11 15:04:59;;;;;;;;;;;6.00;38.80;;;;;;5031225;28;20039;-69
2022/01/11 15:07:30;;;;;;;;;;;5.70;39.10;;;;;;5029109;28;20437;-69
2022/01/11 15:09:56;;;;;;;;;;;5.60;39.50;;;;;;5032900;28;19920;-70
2022/01/11 15:12:23;;;;;;;;;;;5.40;39.80;;;;;;5031195;28;19923;-69
2022/01/11 15:14:54;;;;;;;;;;;5.00;40.20;;;;;;5031635;28;19917;-69
2022/01/11 15:17:20;;;;;;;;;;;4.80;40.50;;;;;;5031202;28;19960;-69
2022/01/11 15:19:46;;;;;;;;;;;4.60;40.90;;;;;;5030981;28;19921;-69